West Dundee, Illinois
Current Conditions -  °F | °C
As of 8:52 PM on Sunday 23 Nov 2014 (Local Time) from KDPA Reporting Station
Moderate Rain Moderate Rain  
Wind Chill: 50°   Ceiling: 600
Heat Index: 50°   Visibility: 3mi
Dew Point: 49°   Wind: 0mph
Humidity: 96%   Direction: NA
Pressure: 29.21"   Gusts: NA
Location:  42.1081°N, 88.3234°W
Report Text: KDPA 240252Z 00000KT 3SM RA BR OVC006 10/09 A2921 RMK AO2 SLP891 P0012 60030 T01000094 58048
Loading
Personal Weather Stations






























Interactive Weather Map New forecast layout! Learn more

10-Day Weather Forecast

Advertisements
Track Severe Weather on mobile